sensor_id;sensor_type;location;lat;lon;timestamp;P1;durP1;ratioP1;P2;durP2;ratioP2
59169;SDS011;52474;52.236;5.114;2023-08-12T00:01:55;11.77;;;6.57;;
59169;SDS011;52474;52.236;5.114;2023-08-12T00:04:21;13.48;;;6.97;;
59169;SDS011;52474;52.236;5.114;2023-08-12T00:06:48;11.68;;;6.72;;
59169;SDS011;52474;52.236;5.114;2023-08-12T00:09:14;15.98;;;6.53;;
59169;SDS011;52474;52.236;5.114;2023-08-12T00:11:40;12.40;;;6.57;;
59169;SDS011;52474;52.236;5.114;2023-08-12T00:14:06;13.10;;;6.93;;
59169;SDS011;52474;52.236;5.114;2023-08-12T00:16:32;12.07;;;6.28;;
59169;SDS011;52474;52.236;5.114;2023-08-12T00:18:59;14.60;;;6.47;;
59169;SDS011;52474;52.236;5.114;2023-08-12T00:21:26;14.15;;;6.70;;
59169;SDS011;52474;52.236;5.114;2023-08-12T00:23:52;12.50;;;6.00;;
59169;SDS011;52474;52.236;5.114;2023-08-12T00:26:18;11.88;;;6.30;;
59169;SDS011;52474;52.236;5.114;2023-08-12T00:28:44;12.60;;;6.07;;
59169;SDS011;52474;52.236;5.114;2023-08-12T00:31:14;12.70;;;6.63;;
59169;SDS011;52474;52.236;5.114;2023-08-12T00:33:40;9.50;;;6.53;;
59169;SDS011;52474;52.236;5.114;2023-08-12T00:36:06;11.77;;;6.47;;
59169;SDS011;52474;52.236;5.114;2023-08-12T00:38:32;14.30;;;6.78;;
59169;SDS011;52474;52.236;5.114;2023-08-12T00:40:58;9.75;;;6.50;;
59169;SDS011;52474;52.236;5.114;2023-08-12T00:43:24;13.63;;;6.47;;
59169;SDS011;52474;52.236;5.114;2023-08-12T00:45:50;15.75;;;7.15;;
59169;SDS011;52474;52.236;5.114;2023-08-12T00:48:17;13.82;;;6.95;;
59169;SDS011;52474;52.236;5.114;2023-08-12T00:50:43;15.68;;;7.20;;
59169;SDS011;52474;52.236;5.114;2023-08-12T00:53:12;11.73;;;7.07;;
59169;SDS011;52474;52.236;5.114;2023-08-12T00:55:40;14.55;;;7.00;;
59169;SDS011;52474;52.236;5.114;2023-08-12T00:58:06;18.23;;;7.47;;
59169;SDS011;52474;52.236;5.114;2023-08-12T01:00:32;19.90;;;7.80;;
59169;SDS011;52474;52.236;5.114;2023-08-12T01:03:00;11.30;;;7.60;;
59169;SDS011;52474;52.236;5.114;2023-08-12T01:05:26;14.85;;;8.68;;
59169;SDS011;52474;52.236;5.114;2023-08-12T01:07:55;17.23;;;8.88;;
59169;SDS011;52474;52.236;5.114;2023-08-12T01:10:21;17.40;;;8.32;;
59169;SDS011;52474;52.236;5.114;2023-08-12T01:12:52;17.75;;;8.60;;
59169;SDS011;52474;52.236;5.114;2023-08-12T01:15:27;17.67;;;9.15;;
59169;SDS011;52474;52.236;5.114;2023-08-12T01:17:54;16.67;;;8.80;;
59169;SDS011;52474;52.236;5.114;2023-08-12T01:20:21;19.63;;;9.50;;
59169;SDS011;52474;52.236;5.114;2023-08-12T01:23:37;19.73;;;9.60;;
59169;SDS011;52474;52.236;5.114;2023-08-12T01:25:41;17.10;;;8.93;;
59169;SDS011;52474;52.236;5.114;2023-08-12T01:28:08;15.43;;;9.30;;
59169;SDS011;52474;52.236;5.114;2023-08-12T01:30:46;18.23;;;9.50;;
59169;SDS011;52474;52.236;5.114;2023-08-12T01:36:16;18.27;;;9.65;;
59169;SDS011;52474;52.236;5.114;2023-08-12T01:38:44;19.13;;;10.20;;
59169;SDS011;52474;52.236;5.114;2023-08-12T01:41:14;20.50;;;10.70;;
59169;SDS011;52474;52.236;5.114;2023-08-12T01:43:42;21.05;;;11.05;;
59169;SDS011;52474;52.236;5.114;2023-08-12T01:46:08;23.52;;;11.60;;
59169;SDS011;52474;52.236;5.114;2023-08-12T01:48:35;20.73;;;10.68;;
59169;SDS011;52474;52.236;5.114;2023-08-12T01:51:01;19.85;;;11.00;;
59169;SDS011;52474;52.236;5.114;2023-08-12T01:53:28;22.13;;;10.85;;
59169;SDS011;52474;52.236;5.114;2023-08-12T01:55:54;27.58;;;11.55;;
59169;SDS011;52474;52.236;5.114;2023-08-12T01:58:20;23.95;;;10.77;;
59169;SDS011;52474;52.236;5.114;2023-08-12T02:00:46;21.15;;;10.80;;
59169;SDS011;52474;52.236;5.114;2023-08-12T02:03:12;19.17;;;10.73;;
59169;SDS011;52474;52.236;5.114;2023-08-12T02:05:38;20.67;;;10.80;;
59169;SDS011;52474;52.236;5.114;2023-08-12T02:08:06;19.08;;;11.35;;
59169;SDS011;52474;52.236;5.114;2023-08-12T02:10:34;20.65;;;11.85;;
59169;SDS011;52474;52.236;5.114;2023-08-12T02:13:00;24.65;;;11.32;;
59169;SDS011;52474;52.236;5.114;2023-08-12T02:15:28;20.73;;;11.68;;
59169;SDS011;52474;52.236;5.114;2023-08-12T02:17:54;23.15;;;12.25;;
59169;SDS011;52474;52.236;5.114;2023-08-12T02:20:20;23.83;;;12.25;;
59169;SDS011;52474;52.236;5.114;2023-08-12T02:22:46;23.98;;;11.57;;
59169;SDS011;52474;52.236;5.114;2023-08-12T02:25:12;21.05;;;11.93;;
59169;SDS011;52474;52.236;5.114;2023-08-12T02:27:38;25.20;;;12.32;;
59169;SDS011;52474;52.236;5.114;2023-08-12T02:30:05;21.30;;;12.15;;
59169;SDS011;52474;52.236;5.114;2023-08-12T02:32:31;23.15;;;12.35;;
59169;SDS011;52474;52.236;5.114;2023-08-12T02:34:57;21.33;;;11.48;;
59169;SDS011;52474;52.236;5.114;2023-08-12T02:37:23;22.70;;;11.57;;
59169;SDS011;52474;52.236;5.114;2023-08-12T02:39:49;25.95;;;13.00;;
59169;SDS011;52474;52.236;5.114;2023-08-12T02:42:15;23.65;;;12.65;;
59169;SDS011;52474;52.236;5.114;2023-08-12T02:44:41;28.25;;;13.07;;
59169;SDS011;52474;52.236;5.114;2023-08-12T02:47:07;25.05;;;13.18;;
59169;SDS011;52474;52.236;5.114;2023-08-12T02:49:33;22.73;;;13.15;;
59169;SDS011;52474;52.236;5.114;2023-08-12T02:51:59;25.83;;;13.88;;
59169;SDS011;52474;52.236;5.114;2023-08-12T02:54:25;27.30;;;13.25;;
59169;SDS011;52474;52.236;5.114;2023-08-12T02:56:51;26.27;;;13.63;;
59169;SDS011;52474;52.236;5.114;2023-08-12T02:59:17;23.90;;;14.45;;
59169;SDS011;52474;52.236;5.114;2023-08-12T03:01:43;28.50;;;14.23;;
59169;SDS011;52474;52.236;5.114;2023-08-12T03:04:09;23.67;;;14.13;;
59169;SDS011;52474;52.236;5.114;2023-08-12T03:06:36;29.25;;;15.93;;
59169;SDS011;52474;52.236;5.114;2023-08-12T03:09:02;25.88;;;14.93;;
59169;SDS011;52474;52.236;5.114;2023-08-12T03:11:28;30.55;;;15.32;;
59169;SDS011;52474;52.236;5.114;2023-08-12T03:13:57;26.95;;;14.75;;
59169;SDS011;52474;52.236;5.114;2023-08-12T03:16:24;26.65;;;15.85;;
59169;SDS011;52474;52.236;5.114;2023-08-12T03:18:51;28.58;;;15.38;;
59169;SDS011;52474;52.236;5.114;2023-08-12T03:21:17;30.10;;;15.57;;
59169;SDS011;52474;52.236;5.114;2023-08-12T03:23:43;27.73;;;16.55;;
59169;SDS011;52474;52.236;5.114;2023-08-12T03:26:10;27.95;;;16.27;;
59169;SDS011;52474;52.236;5.114;2023-08-12T03:28:37;26.30;;;14.98;;
59169;SDS011;52474;52.236;5.114;2023-08-12T03:31:10;30.92;;;15.05;;
59169;SDS011;52474;52.236;5.114;2023-08-12T03:33:43;27.58;;;15.27;;
59169;SDS011;52474;52.236;5.114;2023-08-12T03:36:13;28.38;;;15.85;;
59169;SDS011;52474;52.236;5.114;2023-08-12T03:38:42;27.85;;;15.40;;
59169;SDS011;52474;52.236;5.114;2023-08-12T03:41:15;27.70;;;15.88;;
59169;SDS011;52474;52.236;5.114;2023-08-12T03:43:42;31.00;;;16.35;;
59169;SDS011;52474;52.236;5.114;2023-08-12T03:46:10;31.10;;;17.02;;
59169;SDS011;52474;52.236;5.114;2023-08-12T03:48:38;30.38;;;17.13;;
59169;SDS011;52474;52.236;5.114;2023-08-12T03:51:05;32.90;;;18.60;;
59169;SDS011;52474;52.236;5.114;2023-08-12T03:53:33;36.88;;;18.45;;
59169;SDS011;52474;52.236;5.114;2023-08-12T03:56:01;35.03;;;19.63;;
59169;SDS011;52474;52.236;5.114;2023-08-12T03:58:28;37.35;;;18.92;;
59169;SDS011;52474;52.236;5.114;2023-08-12T04:00:55;37.67;;;19.33;;
59169;SDS011;52474;52.236;5.114;2023-08-12T04:03:25;39.03;;;19.83;;
59169;SDS011;52474;52.236;5.114;2023-08-12T04:05:55;44.17;;;21.17;;
59169;SDS011;52474;52.236;5.114;2023-08-12T04:08:23;40.08;;;20.77;;
59169;SDS011;52474;52.236;5.114;2023-08-12T04:10:51;39.47;;;18.27;;
59169;SDS011;52474;52.236;5.114;2023-08-12T04:13:19;38.38;;;19.67;;
59169;SDS011;52474;52.236;5.114;2023-08-12T04:15:50;40.13;;;21.58;;
59169;SDS011;52474;52.236;5.114;2023-08-12T04:18:20;39.92;;;20.10;;
59169;SDS011;52474;52.236;5.114;2023-08-12T04:20:49;38.92;;;19.95;;
59169;SDS011;52474;52.236;5.114;2023-08-12T04:23:17;36.45;;;20.05;;
59169;SDS011;52474;52.236;5.114;2023-08-12T04:25:46;48.27;;;20.60;;
59169;SDS011;52474;52.236;5.114;2023-08-12T04:30:48;39.58;;;21.08;;
59169;SDS011;52474;52.236;5.114;2023-08-12T04:33:18;37.88;;;20.17;;
59169;SDS011;52474;52.236;5.114;2023-08-12T04:35:47;34.70;;;20.55;;
59169;SDS011;52474;52.236;5.114;2023-08-12T04:38:18;35.50;;;19.30;;
59169;SDS011;52474;52.236;5.114;2023-08-12T04:40:52;37.80;;;19.92;;
59169;SDS011;52474;52.236;5.114;2023-08-12T04:43:22;39.13;;;20.75;;
59169;SDS011;52474;52.236;5.114;2023-08-12T04:45:50;40.35;;;20.17;;
59169;SDS011;52474;52.236;5.114;2023-08-12T04:48:21;37.40;;;20.27;;
59169;SDS011;52474;52.236;5.114;2023-08-12T04:50:51;38.58;;;19.48;;
59169;SDS011;52474;52.236;5.114;2023-08-12T04:53:19;39.22;;;20.00;;
59169;SDS011;52474;52.236;5.114;2023-08-12T04:55:49;46.80;;;21.70;;
59169;SDS011;52474;52.236;5.114;2023-08-12T04:58:19;41.58;;;20.30;;
59169;SDS011;52474;52.236;5.114;2023-08-12T05:00:53;36.08;;;20.30;;
59169;SDS011;52474;52.236;5.114;2023-08-12T05:03:21;34.08;;;19.77;;
59169;SDS011;52474;52.236;5.114;2023-08-12T05:08:20;40.53;;;19.88;;
59169;SDS011;52474;52.236;5.114;2023-08-12T05:10:51;39.42;;;20.33;;
59169;SDS011;52474;52.236;5.114;2023-08-12T05:13:30;36.20;;;19.30;;
59169;SDS011;52474;52.236;5.114;2023-08-12T05:16:10;34.35;;;19.95;;
59169;SDS011;52474;52.236;5.114;2023-08-12T05:18:41;38.60;;;20.27;;
59169;SDS011;52474;52.236;5.114;2023-08-12T05:21:16;36.72;;;20.58;;
59169;SDS011;52474;52.236;5.114;2023-08-12T05:23:48;38.33;;;20.90;;
59169;SDS011;52474;52.236;5.114;2023-08-12T05:26:17;35.53;;;19.30;;
59169;SDS011;52474;52.236;5.114;2023-08-12T05:31:20;37.47;;;20.35;;
59169;SDS011;52474;52.236;5.114;2023-08-12T05:33:48;38.63;;;20.15;;
59169;SDS011;52474;52.236;5.114;2023-08-12T05:36:26;36.67;;;19.95;;
59169;SDS011;52474;52.236;5.114;2023-08-12T05:38:56;34.92;;;20.05;;
59169;SDS011;52474;52.236;5.114;2023-08-12T05:41:39;34.30;;;19.98;;
59169;SDS011;52474;52.236;5.114;2023-08-12T05:44:07;41.42;;;22.52;;
59169;SDS011;52474;52.236;5.114;2023-08-12T05:46:42;37.90;;;19.85;;
59169;SDS011;52474;52.236;5.114;2023-08-12T05:49:33;39.08;;;20.92;;
59169;SDS011;52474;52.236;5.114;2023-08-12T05:52:28;38.50;;;20.15;;
59169;SDS011;52474;52.236;5.114;2023-08-12T05:54:59;40.53;;;22.17;;
59169;SDS011;52474;52.236;5.114;2023-08-12T05:57:52;40.63;;;21.23;;
59169;SDS011;52474;52.236;5.114;2023-08-12T06:00:22;36.72;;;21.40;;
59169;SDS011;52474;52.236;5.114;2023-08-12T06:03:02;38.40;;;22.23;;
59169;SDS011;52474;52.236;5.114;2023-08-12T06:05:29;46.30;;;22.73;;
59169;SDS011;52474;52.236;5.114;2023-08-12T06:07:57;43.92;;;23.17;;
59169;SDS011;52474;52.236;5.114;2023-08-12T06:10:38;48.15;;;24.08;;
59169;SDS011;52474;52.236;5.114;2023-08-12T06:13:05;48.00;;;23.00;;
59169;SDS011;52474;52.236;5.114;2023-08-12T06:15:34;54.42;;;25.13;;
59169;SDS011;52474;52.236;5.114;2023-08-12T06:18:01;59.15;;;25.90;;
59169;SDS011;52474;52.236;5.114;2023-08-12T06:20:32;67.00;;;25.55;;
59169;SDS011;52474;52.236;5.114;2023-08-12T06:22:59;47.30;;;20.77;;
59169;SDS011;52474;52.236;5.114;2023-08-12T06:25:31;48.17;;;20.88;;
59169;SDS011;52474;52.236;5.114;2023-08-12T06:28:11;40.53;;;16.00;;
59169;SDS011;52474;52.236;5.114;2023-08-12T06:30:39;24.58;;;11.07;;
59169;SDS011;52474;52.236;5.114;2023-08-12T06:33:22;30.77;;;13.27;;
59169;SDS011;52474;52.236;5.114;2023-08-12T06:36:07;0.20;;;0.15;;
59169;SDS011;52474;52.236;5.114;2023-08-12T06:38:41;1.75;;;0.63;;
59169;SDS011;52474;52.236;5.114;2023-08-12T06:41:13;0.45;;;0.45;;
59169;SDS011;52474;52.236;5.114;2023-08-12T06:43:41;0.85;;;0.38;;
59169;SDS011;52474;52.236;5.114;2023-08-12T06:46:09;0.55;;;0.50;;
59169;SDS011;52474;52.236;5.114;2023-08-12T06:48:36;0.77;;;0.35;;
59169;SDS011;52474;52.236;5.114;2023-08-12T06:51:04;0.30;;;0.30;;
59169;SDS011;52474;52.236;5.114;2023-08-12T06:53:40;0.40;;;0.40;;
59169;SDS011;52474;52.236;5.114;2023-08-12T06:56:08;0.52;;;0.30;;
59169;SDS011;52474;52.236;5.114;2023-08-12T06:58:40;0.20;;;0.10;;
59169;SDS011;52474;52.236;5.114;2023-08-12T07:01:14;0.00;;;0.00;;
59169;SDS011;52474;52.236;5.114;2023-08-12T07:03:41;0.00;;;0.00;;
59169;SDS011;52474;52.236;5.114;2023-08-12T07:06:23;0.10;;;0.10;;
59169;SDS011;52474;52.236;5.114;2023-08-12T07:09:03;0.20;;;0.20;;
59169;SDS011;52474;52.236;5.114;2023-08-12T07:11:31;0.10;;;0.10;;
59169;SDS011;52474;52.236;5.114;2023-08-12T07:14:00;0.22;;;0.22;;
59169;SDS011;52474;52.236;5.114;2023-08-12T07:16:30;1.23;;;1.13;;
59169;SDS011;52474;52.236;5.114;2023-08-12T07:18:59;0.28;;;0.20;;
59169;SDS011;52474;52.236;5.114;2023-08-12T07:21:27;0.05;;;0.05;;
59169;SDS011;52474;52.236;5.114;2023-08-12T07:23:56;0.00;;;0.00;;
59169;SDS011;52474;52.236;5.114;2023-08-12T07:26:23;0.10;;;0.10;;
59169;SDS011;52474;52.236;5.114;2023-08-12T07:28:50;0.00;;;0.00;;
59169;SDS011;52474;52.236;5.114;2023-08-12T07:31:17;0.00;;;0.00;;
59169;SDS011;52474;52.236;5.114;2023-08-12T07:33:44;0.00;;;0.00;;
59169;SDS011;52474;52.236;5.114;2023-08-12T07:36:11;0.10;;;0.10;;
59169;SDS011;52474;52.236;5.114;2023-08-12T07:38:38;0.10;;;0.10;;
59169;SDS011;52474;52.236;5.114;2023-08-12T07:41:05;0.10;;;0.10;;
59169;SDS011;52474;52.236;5.114;2023-08-12T07:43:32;0.40;;;0.40;;
59169;SDS011;52474;52.236;5.114;2023-08-12T07:45:58;0.20;;;0.20;;
59169;SDS011;52474;52.236;5.114;2023-08-12T07:48:25;0.00;;;0.00;;
59169;SDS011;52474;52.236;5.114;2023-08-12T07:50:57;0.10;;;0.10;;
59169;SDS011;52474;52.236;5.114;2023-08-12T07:53:27;0.28;;;0.28;;
59169;SDS011;52474;52.236;5.114;2023-08-12T07:55:54;0.10;;;0.10;;
59169;SDS011;52474;52.236;5.114;2023-08-12T07:58:21;0.63;;;0.63;;
59169;SDS011;52474;52.236;5.114;2023-08-12T08:00:51;0.10;;;0.10;;
59169;SDS011;52474;52.236;5.114;2023-08-12T08:03:20;0.00;;;0.00;;
59169;SDS011;52474;52.236;5.114;2023-08-12T08:05:46;0.38;;;0.20;;
59169;SDS011;52474;52.236;5.114;2023-08-12T08:08:14;0.00;;;0.00;;
59169;SDS011;52474;52.236;5.114;2023-08-12T08:10:42;0.13;;;0.13;;
59169;SDS011;52474;52.236;5.114;2023-08-12T08:13:11;0.08;;;0.08;;
59169;SDS011;52474;52.236;5.114;2023-08-12T08:15:40;0.43;;;0.22;;
59169;SDS011;52474;52.236;5.114;2023-08-12T08:18:08;0.00;;;0.00;;
59169;SDS011;52474;52.236;5.114;2023-08-12T08:20:37;0.38;;;0.38;;
59169;SDS011;52474;52.236;5.114;2023-08-12T08:23:03;0.10;;;0.10;;
59169;SDS011;52474;52.236;5.114;2023-08-12T08:25:30;1.08;;;0.57;;
59169;SDS011;52474;52.236;5.114;2023-08-12T08:30:26;0.00;;;0.00;;
59169;SDS011;52474;52.236;5.114;2023-08-12T08:33:06;0.10;;;0.10;;
59169;SDS011;52474;52.236;5.114;2023-08-12T08:35:33;0.00;;;0.00;;
59169;SDS011;52474;52.236;5.114;2023-08-12T08:38:00;0.00;;;0.00;;
59169;SDS011;52474;52.236;5.114;2023-08-12T08:40:30;0.10;;;0.10;;
59169;SDS011;52474;52.236;5.114;2023-08-12T08:42:58;0.10;;;0.08;;
59169;SDS011;52474;52.236;5.114;2023-08-12T08:45:34;0.52;;;0.52;;
59169;SDS011;52474;52.236;5.114;2023-08-12T08:48:02;0.43;;;0.43;;
59169;SDS011;52474;52.236;5.114;2023-08-12T08:50:31;0.08;;;0.00;;
59169;SDS011;52474;52.236;5.114;2023-08-12T08:53:07;0.00;;;0.00;;
59169;SDS011;52474;52.236;5.114;2023-08-12T08:55:35;0.00;;;0.00;;
59169;SDS011;52474;52.236;5.114;2023-08-12T08:58:02;0.00;;;0.00;;
59169;SDS011;52474;52.236;5.114;2023-08-12T09:02:58;0.00;;;0.00;;
59169;SDS011;52474;52.236;5.114;2023-08-12T09:05:25;0.10;;;0.08;;
59169;SDS011;52474;52.236;5.114;2023-08-12T09:07:55;0.55;;;0.55;;
59169;SDS011;52474;52.236;5.114;2023-08-12T09:10:23;0.22;;;0.22;;
59169;SDS011;52474;52.236;5.114;2023-08-12T09:12:56;0.00;;;0.00;;
59169;SDS011;52474;52.236;5.114;2023-08-12T09:15:25;0.10;;;0.10;;
59169;SDS011;52474;52.236;5.114;2023-08-12T09:17:54;0.00;;;0.00;;
59169;SDS011;52474;52.236;5.114;2023-08-12T09:20:20;0.10;;;0.10;;
59169;SDS011;52474;52.236;5.114;2023-08-12T09:22:56;0.10;;;0.10;;
59169;SDS011;52474;52.236;5.114;2023-08-12T09:25:25;1.30;;;0.10;;
59169;SDS011;52474;52.236;5.114;2023-08-12T09:27:58;0.32;;;0.15;;
59169;SDS011;52474;52.236;5.114;2023-08-12T09:30:29;0.13;;;0.10;;
59169;SDS011;52474;52.236;5.114;2023-08-12T09:32:58;0.00;;;0.00;;
59169;SDS011;52474;52.236;5.114;2023-08-12T09:35:36;0.00;;;0.00;;
59169;SDS011;52474;52.236;5.114;2023-08-12T09:38:07;0.00;;;0.00;;
59169;SDS011;52474;52.236;5.114;2023-08-12T09:40:40;0.17;;;0.17;;
59169;SDS011;52474;52.236;5.114;2023-08-12T09:43:09;0.00;;;0.00;;
59169;SDS011;52474;52.236;5.114;2023-08-12T09:45:37;0.00;;;0.00;;
59169;SDS011;52474;52.236;5.114;2023-08-12T09:48:06;0.00;;;0.00;;
59169;SDS011;52474;52.236;5.114;2023-08-12T09:50:34;0.00;;;0.00;;
59169;SDS011;52474;52.236;5.114;2023-08-12T09:53:02;0.00;;;0.00;;
59169;SDS011;52474;52.236;5.114;2023-08-12T09:55:31;0.05;;;0.05;;
59169;SDS011;52474;52.236;5.114;2023-08-12T09:58:02;0.30;;;0.30;;
59169;SDS011;52474;52.236;5.114;2023-08-12T10:00:34;0.13;;;0.13;;
59169;SDS011;52474;52.236;5.114;2023-08-12T10:03:07;0.00;;;0.00;;
59169;SDS011;52474;52.236;5.114;2023-08-12T10:05:36;0.30;;;0.30;;
59169;SDS011;52474;52.236;5.114;2023-08-12T10:08:12;0.43;;;0.32;;
59169;SDS011;52474;52.236;5.114;2023-08-12T10:10:51;0.20;;;0.20;;
59169;SDS011;52474;52.236;5.114;2023-08-12T10:18:33;0.77;;;0.77;;
59169;SDS011;52474;52.236;5.114;2023-08-12T10:21:02;0.20;;;0.20;;
59169;SDS011;52474;52.236;5.114;2023-08-12T10:23:38;0.40;;;0.40;;
59169;SDS011;52474;52.236;5.114;2023-08-12T10:26:08;0.05;;;0.05;;
59169;SDS011;52474;52.236;5.114;2023-08-12T10:28:36;0.27;;;0.27;;
59169;SDS011;52474;52.236;5.114;2023-08-12T10:31:47;0.20;;;0.20;;
59169;SDS011;52474;52.236;5.114;2023-08-12T10:34:31;0.52;;;0.52;;
59169;SDS011;52474;52.236;5.114;2023-08-12T10:37:01;0.30;;;0.30;;
59169;SDS011;52474;52.236;5.114;2023-08-12T10:39:31;0.00;;;0.00;;
59169;SDS011;52474;52.236;5.114;2023-08-12T10:49:57;0.00;;;0.00;;
59169;SDS011;52474;52.236;5.114;2023-08-12T10:52:29;0.00;;;0.00;;
59169;SDS011;52474;52.236;5.114;2023-08-12T10:57:54;0.10;;;0.10;;
59169;SDS011;52474;52.236;5.114;2023-08-12T11:00:31;0.28;;;0.28;;
59169;SDS011;52474;52.236;5.114;2023-08-12T11:03:06;0.57;;;0.57;;
59169;SDS011;52474;52.236;5.114;2023-08-12T11:05:39;0.13;;;0.13;;
59169;SDS011;52474;52.236;5.114;2023-08-12T11:08:13;0.20;;;0.20;;
59169;SDS011;52474;52.236;5.114;2023-08-12T11:10:42;0.00;;;0.00;;
59169;SDS011;52474;52.236;5.114;2023-08-12T11:13:13;0.17;;;0.17;;
59169;SDS011;52474;52.236;5.114;2023-08-12T11:15:42;0.00;;;0.00;;
59169;SDS011;52474;52.236;5.114;2023-08-12T11:18:15;0.57;;;0.20;;
59169;SDS011;52474;52.236;5.114;2023-08-12T11:20:45;0.03;;;0.03;;
59169;SDS011;52474;52.236;5.114;2023-08-12T11:23:16;0.22;;;0.22;;
59169;SDS011;52474;52.236;5.114;2023-08-12T11:25:46;0.10;;;0.10;;
59169;SDS011;52474;52.236;5.114;2023-08-12T11:28:17;0.20;;;0.20;;
59169;SDS011;52474;52.236;5.114;2023-08-12T11:30:47;0.80;;;0.35;;
59169;SDS011;52474;52.236;5.114;2023-08-12T11:33:15;0.17;;;0.17;;
59169;SDS011;52474;52.236;5.114;2023-08-12T11:35:44;0.25;;;0.25;;
59169;SDS011;52474;52.236;5.114;2023-08-12T11:38:12;0.22;;;0.22;;
59169;SDS011;52474;52.236;5.114;2023-08-12T11:40:41;0.35;;;0.35;;
59169;SDS011;52474;52.236;5.114;2023-08-12T11:43:08;3.15;;;0.30;;
59169;SDS011;52474;52.236;5.114;2023-08-12T11:45:36;0.43;;;0.43;;
59169;SDS011;52474;52.236;5.114;2023-08-12T11:48:11;0.57;;;0.57;;
59169;SDS011;52474;52.236;5.114;2023-08-12T11:50:44;0.20;;;0.20;;
59169;SDS011;52474;52.236;5.114;2023-08-12T11:53:13;0.10;;;0.10;;
59169;SDS011;52474;52.236;5.114;2023-08-12T11:55:43;0.10;;;0.10;;
59169;SDS011;52474;52.236;5.114;2023-08-12T11:58:16;0.35;;;0.35;;
59169;SDS011;52474;52.236;5.114;2023-08-12T12:00:52;0.10;;;0.10;;
59169;SDS011;52474;52.236;5.114;2023-08-12T12:03:27;0.20;;;0.20;;
59169;SDS011;52474;52.236;5.114;2023-08-12T12:05:58;0.35;;;0.35;;
59169;SDS011;52474;52.236;5.114;2023-08-12T12:08:30;0.10;;;0.10;;
59169;SDS011;52474;52.236;5.114;2023-08-12T12:11:04;0.10;;;0.10;;
59169;SDS011;52474;52.236;5.114;2023-08-12T12:13:31;0.20;;;0.20;;
59169;SDS011;52474;52.236;5.114;2023-08-12T12:16:00;0.20;;;0.20;;
59169;SDS011;52474;52.236;5.114;2023-08-12T12:18:35;0.00;;;0.00;;
59169;SDS011;52474;52.236;5.114;2023-08-12T12:21:04;0.30;;;0.30;;
59169;SDS011;52474;52.236;5.114;2023-08-12T12:23:31;0.00;;;0.00;;
59169;SDS011;52474;52.236;5.114;2023-08-12T12:26:01;0.30;;;0.30;;
59169;SDS011;52474;52.236;5.114;2023-08-12T12:28:29;1.00;;;0.60;;
59169;SDS011;52474;52.236;5.114;2023-08-12T12:30:56;0.10;;;0.10;;
59169;SDS011;52474;52.236;5.114;2023-08-12T12:33:23;6.15;;;1.45;;
59169;SDS011;52474;52.236;5.114;2023-08-12T12:35:51;10.90;;;2.70;;
59169;SDS011;52474;52.236;5.114;2023-08-12T12:38:27;6.63;;;2.33;;
59169;SDS011;52474;52.236;5.114;2023-08-12T12:40:58;7.50;;;2.58;;
59169;SDS011;52474;52.236;5.114;2023-08-12T12:43:28;10.13;;;2.90;;
59169;SDS011;52474;52.236;5.114;2023-08-12T12:46:21;6.43;;;2.38;;
59169;SDS011;52474;52.236;5.114;2023-08-12T12:48:51;8.98;;;2.40;;
59169;SDS011;52474;52.236;5.114;2023-08-12T12:51:41;9.98;;;3.05;;
59169;SDS011;52474;52.236;5.114;2023-08-12T12:54:11;10.05;;;2.45;;
59169;SDS011;52474;52.236;5.114;2023-08-12T12:56:43;10.20;;;2.42;;
59169;SDS011;52474;52.236;5.114;2023-08-12T12:59:10;10.13;;;2.72;;
59169;SDS011;52474;52.236;5.114;2023-08-12T13:01:41;9.85;;;2.58;;
59169;SDS011;52474;52.236;5.114;2023-08-12T13:04:10;11.52;;;2.60;;
59169;SDS011;52474;52.236;5.114;2023-08-12T13:06:37;9.38;;;2.40;;
59169;SDS011;52474;52.236;5.114;2023-08-12T13:09:07;12.63;;;3.03;;
59169;SDS011;52474;52.236;5.114;2023-08-12T13:11:38;9.43;;;2.88;;
59169;SDS011;52474;52.236;5.114;2023-08-12T13:14:26;7.70;;;2.80;;
59169;SDS011;52474;52.236;5.114;2023-08-12T13:16:59;9.98;;;2.60;;
59169;SDS011;52474;52.236;5.114;2023-08-12T13:19:35;10.35;;;2.40;;
59169;SDS011;52474;52.236;5.114;2023-08-12T13:22:27;8.05;;;2.15;;
59169;SDS011;52474;52.236;5.114;2023-08-12T13:27:58;8.23;;;2.42;;
59169;SDS011;52474;52.236;5.114;2023-08-12T13:30:38;8.10;;;2.50;;
59169;SDS011;52474;52.236;5.114;2023-08-12T13:33:08;8.73;;;2.40;;
59169;SDS011;52474;52.236;5.114;2023-08-12T13:36:03;9.40;;;2.50;;
59169;SDS011;52474;52.236;5.114;2023-08-12T13:38:48;8.95;;;2.20;;
59169;SDS011;52474;52.236;5.114;2023-08-12T13:41:19;10.48;;;2.53;;
59169;SDS011;52474;52.236;5.114;2023-08-12T13:43:57;7.65;;;2.60;;
59169;SDS011;52474;52.236;5.114;2023-08-12T13:46:29;10.98;;;2.53;;
59169;SDS011;52474;52.236;5.114;2023-08-12T13:49:08;11.25;;;3.05;;
59169;SDS011;52474;52.236;5.114;2023-08-12T13:51:42;10.52;;;2.30;;
59169;SDS011;52474;52.236;5.114;2023-08-12T13:54:14;9.80;;;2.72;;
59169;SDS011;52474;52.236;5.114;2023-08-12T13:56:48;6.50;;;2.00;;
59169;SDS011;52474;52.236;5.114;2023-08-12T13:59:20;9.68;;;2.28;;
59169;SDS011;52474;52.236;5.114;2023-08-12T14:01:52;7.68;;;2.35;;
59169;SDS011;52474;52.236;5.114;2023-08-12T14:04:24;13.20;;;2.70;;
59169;SDS011;52474;52.236;5.114;2023-08-12T14:06:56;7.70;;;2.10;;
59169;SDS011;52474;52.236;5.114;2023-08-12T14:09:33;10.85;;;2.50;;
59169;SDS011;52474;52.236;5.114;2023-08-12T14:12:05;9.52;;;2.67;;
59169;SDS011;52474;52.236;5.114;2023-08-12T14:14:40;11.80;;;2.70;;
59169;SDS011;52474;52.236;5.114;2023-08-12T14:17:10;9.52;;;2.25;;
59169;SDS011;52474;52.236;5.114;2023-08-12T14:19:44;8.77;;;2.50;;
59169;SDS011;52474;52.236;5.114;2023-08-12T14:22:16;10.80;;;2.83;;
59169;SDS011;52474;52.236;5.114;2023-08-12T14:24:47;11.50;;;2.70;;
59169;SDS011;52474;52.236;5.114;2023-08-12T14:27:22;11.98;;;2.53;;
59169;SDS011;52474;52.236;5.114;2023-08-12T14:32:23;6.15;;;2.25;;
59169;SDS011;52474;52.236;5.114;2023-08-12T14:34:50;8.65;;;2.35;;
59169;SDS011;52474;52.236;5.114;2023-08-12T14:37:25;11.85;;;2.50;;
59169;SDS011;52474;52.236;5.114;2023-08-12T14:39:55;9.90;;;2.30;;
59169;SDS011;52474;52.236;5.114;2023-08-12T14:42:28;9.25;;;2.60;;
59169;SDS011;52474;52.236;5.114;2023-08-12T14:44:57;11.77;;;2.42;;
59169;SDS011;52474;52.236;5.114;2023-08-12T14:47:29;13.63;;;2.85;;
59169;SDS011;52474;52.236;5.114;2023-08-12T14:50:02;12.05;;;2.80;;
59169;SDS011;52474;52.236;5.114;2023-08-12T14:52:34;6.20;;;2.10;;
59169;SDS011;52474;52.236;5.114;2023-08-12T14:55:09;10.40;;;2.58;;
59169;SDS011;52474;52.236;5.114;2023-08-12T14:57:43;8.57;;;2.40;;
59169;SDS011;52474;52.236;5.114;2023-08-12T15:00:27;10.88;;;2.20;;
59169;SDS011;52474;52.236;5.114;2023-08-12T15:03:10;15.27;;;2.80;;
59169;SDS011;52474;52.236;5.114;2023-08-12T15:05:37;6.55;;;2.22;;
59169;SDS011;52474;52.236;5.114;2023-08-12T15:08:07;10.13;;;2.50;;
59169;SDS011;52474;52.236;5.114;2023-08-12T15:10:40;7.05;;;2.00;;
59169;SDS011;52474;52.236;5.114;2023-08-12T15:13:32;10.85;;;3.05;;
59169;SDS011;52474;52.236;5.114;2023-08-12T15:16:00;10.98;;;2.97;;
59169;SDS011;52474;52.236;5.114;2023-08-12T15:18:32;9.10;;;2.50;;
59169;SDS011;52474;52.236;5.114;2023-08-12T15:30:06;9.25;;;3.15;;
59169;SDS011;52474;52.236;5.114;2023-08-12T15:32:52;10.60;;;2.40;;
59169;SDS011;52474;52.236;5.114;2023-08-12T15:35:40;8.77;;;2.10;;
59169;SDS011;52474;52.236;5.114;2023-08-12T15:38:57;11.02;;;2.33;;
59169;SDS011;52474;52.236;5.114;2023-08-12T15:42:02;6.13;;;2.08;;
59169;SDS011;52474;52.236;5.114;2023-08-12T15:48:45;9.60;;;2.22;;